Aviation Digital Data Service (ADDS)

Output produced by METARs form (2339 UTC 25 August 2016)
found at http://www.aviationweather.gov/adds/metars/
 
METAR text: EPWA 252330Z 14003KT CAVOK 15/12 Q1025 NOSIG
Conditions at: EPWA (WARSAW/OKECIE , PL) observed 2330 UTC 25 August 2016
Temperature: 15.0°C (59°F)
Dewpoint: 12.0°C (54°F) [RH = 82%]
Pressure (altimeter): 30.27 inches Hg (1025.0 mb)
Winds: from the SE (140 degrees) at 3 MPH (3 knots; 1.6 m/s)
Visibility: 6 or more miles (10+ km)
Ceiling: ceiling and visibility are OK
Clouds: unknown
Weather: no significant weather observed at this time

Forecast for: EPWA (WARSAW/OKECIE , PL)
Text: TAF EPWA 252330Z 2600/2624 VRB03KT CAVOK
Forecast period: 0000 to 0600 UTC 26 August 2016
Forecast type: FROM: standard forecast or significant change
Winds: variable direction winds at 3 MPH (3 knots; 1.6 m/s)
Visibility: 6 or more miles (10+ km)
Clouds: not forecast
Weather: NSW  (no significant weather)
Text: BECMG 2606/2609 16010KT
Forecast period: 0600 UTC 26 August 2016 to 0000 UTC 27 August 2016
Forecast type: BECOMING: Conditions expected to become as follows by 0900 UTC 26 August 2016
Winds: from the SSE (160 degrees) at 12 MPH (10 knots; 5.2 m/s)
Visibility: 6 or more miles (10+ km)
Weather: NSW  (no significant weather)